Time;durP1;ratioP1;P1;durP2;ratioP2;P2;SDS_P1;SDS_P2;PMS_P1;PMS_P2;Temp;Humidity;BMP_temperature;BMP_pressure;BME280_temperature;BME280_humidity;BME280_pressure;Samples;Min_cycle;Max_cycle;Signal;HPM_P1;HPM_P2
2022/01/17 00:01:13;;;;;;;22.75;10.08;;;;;;;0.46;85.81;98860.22;1691032;84;25454;-60
2022/01/17 00:03:39;;;;;;;30.30;13.60;;;;;;;0.46;86.39;98852.13;1692517;84;27333;-60
2022/01/17 00:06:06;;;;;;;35.60;14.93;;;;;;;0.47;86.29;98859.70;1692238;84;25782;-59
2022/01/17 00:08:33;;;;;;;30.05;14.50;;;;;;;0.51;85.97;98857.35;1692318;84;25486;-60
2022/01/17 00:11:01;;;;;;;37.67;14.60;;;;;;;0.53;85.82;98861.95;1692483;84;25612;-61
2022/01/17 00:13:29;;;;;;;24.20;10.75;;;;;;;0.53;86.03;98857.91;1692670;84;25471;-59
2022/01/17 00:16:04;;;;;;;39.00;14.53;;;;;;;0.50;86.11;98844.39;1692550;84;27770;-60
2022/01/17 00:18:42;;;;;;;32.17;12.98;;;;;;;0.45;86.23;98842.94;1690657;84;26262;-59
2022/01/17 00:20:54;;;;;;;29.98;13.85;;;;;;;0.45;86.33;98838.89;1688554;84;25708;-60
2022/01/17 00:23:20;;;;;;;31.85;13.00;;;;;;;0.46;86.24;98841.90;1692338;84;25475;-60
2022/01/17 00:25:46;;;;;;;35.92;13.48;;;;;;;0.47;86.14;98833.56;1692833;84;25601;-61
2022/01/17 00:28:13;;;;;;;26.10;12.00;;;;;;;0.49;86.45;98832.77;1692418;84;29545;-65
2022/01/17 00:30:39;;;;;;;29.40;13.05;;;;;;;0.53;86.21;98839.03;1692562;84;25440;-61
2022/01/17 00:33:05;;;;;;;28.95;11.28;;;;;;;0.50;86.21;98830.91;1692847;84;25613;-60
2022/01/17 00:35:32;;;;;;;36.65;14.40;;;;;;;0.49;86.26;98827.37;1692513;84;25672;-60
2022/01/17 00:37:58;;;;;;;28.17;12.55;;;;;;;0.47;86.42;98824.12;1692433;84;25629;-60
2022/01/17 00:40:25;;;;;;;29.10;12.60;;;;;;;0.47;86.28;98816.04;1692450;84;26639;-61
2022/01/17 00:42:51;;;;;;;28.67;12.23;;;;;;;0.48;86.28;98803.36;1692523;84;25520;-61
2022/01/17 00:45:24;;;;;;;28.40;12.47;;;;;;;0.50;86.34;98807.98;1692365;84;25757;-61
2022/01/17 00:47:50;;;;;;;25.25;10.03;;;;;;;0.54;86.12;98795.64;1690949;84;25384;-61
2022/01/17 00:50:13;;;;;;;27.70;9.80;;;;;;;0.54;86.39;98798.86;1691935;84;25676;-61
2022/01/17 00:52:39;;;;;;;21.07;9.58;;;;;;;0.53;86.39;98799.93;1692417;84;27620;-62
2022/01/17 00:55:07;;;;;;;24.90;9.73;;;;;;;0.52;86.36;98791.56;1692406;84;25625;-61
2022/01/17 00:57:34;;;;;;;18.17;9.18;;;;;;;0.49;86.39;98789.63;1692400;84;25431;-61
2022/01/17 01:00:02;;;;;;;23.42;9.48;;;;;;;0.49;86.51;98794.22;1692289;84;25633;-59
2022/01/17 01:02:28;;;;;;;30.50;12.15;;;;;;;0.51;86.50;98792.08;1692467;84;25609;-59
2022/01/17 01:04:54;;;;;;;30.85;13.45;;;;;;;0.55;86.39;98790.52;1692481;84;27502;-59
2022/01/17 01:07:20;;;;;;;28.65;12.23;;;;;;;0.57;86.44;98784.89;1692345;84;25676;-61
2022/01/17 01:10:02;;;;;;;22.00;10.90;;;;;;;0.58;86.47;98779.80;1692401;84;25641;-61
2022/01/17 01:12:18;;;;;;;;;;;;;;;0.60;86.40;98774.95;1692147;84;25403;-61
2022/01/17 01:14:45;;;;;;;27.22;9.98;;;;;;;0.61;86.32;98780.66;1692645;84;25462;-61
2022/01/17 01:17:30;;;;;;;24.57;9.93;;;;;;;0.58;86.25;98781.95;1692545;84;27463;-60
2022/01/17 01:19:42;;;;;;;33.08;13.22;;;;;;;0.57;86.27;98772.23;1688361;84;25892;-61
2022/01/17 01:27:40;;;;;;;17.75;9.05;;;;;;;0.57;86.13;98778.14;1692390;84;25708;-62
2022/01/17 01:27:44;;;;;;;28.95;11.43;;;;;;;0.67;85.86;98772.11;1692347;84;25705;-66
2022/01/17 01:30:12;;;;;;;16.70;7.03;;;;;;;0.71;85.63;98757.89;1691826;84;26416;-67
2022/01/17 01:32:48;;;;;;;24.87;9.90;;;;;;;0.72;85.49;98754.67;1692009;84;25495;-67
2022/01/17 01:35:10;;;;;;;13.58;5.40;;;;;;;0.70;85.44;98750.05;1689962;84;25621;-66
2022/01/17 01:37:35;;;;;;;25.90;12.45;;;;;;;0.68;85.41;98752.98;1692073;84;25676;-64
2022/01/17 01:40:01;;;;;;;17.55;8.35;;;;;;;0.67;85.40;98754.06;1692398;84;25408;-63
2022/01/17 01:42:30;;;;;;;20.85;8.60;;;;;;;0.71;85.20;98740.36;1692662;84;27532;-64
2022/01/17 01:44:55;;;;;;;19.67;9.23;;;;;;;0.74;85.02;98733.64;1692313;84;25609;-64
2022/01/17 01:47:25;;;;;;;13.62;5.72;;;;;;;0.77;84.99;98726.95;1692858;84;25472;-63
2022/01/17 01:49:53;;;;;;;22.97;9.33;;;;;;;0.77;84.79;98718.31;1692724;84;26453;-68
2022/01/17 01:52:20;;;;;;;23.85;9.33;;;;;;;0.79;84.71;98716.19;1692371;84;25665;-66
2022/01/17 01:54:46;;;;;;;15.18;6.20;;;;;;;0.76;84.65;98709.95;1692311;84;27471;-68
2022/01/17 01:57:13;;;;;;;18.80;7.67;;;;;;;0.78;84.60;98698.38;1692260;84;25609;-67
2022/01/17 01:59:39;;;;;;;12.98;6.00;;;;;;;0.80;84.42;98693.53;1692376;84;25761;-66
2022/01/17 02:02:09;;;;;;;14.15;6.95;;;;;;;0.83;84.33;98690.87;1692353;84;25441;-66
2022/01/17 02:04:36;;;;;;;17.50;7.65;;;;;;;0.86;84.21;98686.33;1692761;84;25697;-67
2022/01/17 02:07:03;;;;;;;18.77;8.73;;;;;;;0.86;84.15;98675.01;1685821;84;29588;-67
2022/01/17 02:09:29;;;;;;;18.15;6.65;;;;;;;0.86;84.23;98684.45;1683855;85;25524;-65
2022/01/17 02:11:55;;;;;;;17.48;7.95;;;;;;;0.83;84.30;98671.45;1683691;84;25413;-65
2022/01/17 02:14:22;;;;;;;21.33;9.20;;;;;;;0.82;84.31;98671.19;1683624;85;25462;-65
2022/01/17 02:16:50;;;;;;;14.45;6.72;;;;;;;0.85;84.25;98658.55;1684311;84;25412;-66
2022/01/17 02:19:24;;;;;;;20.40;7.87;;;;;;;0.89;84.05;98644.00;1683864;85;28268;-65
2022/01/17 02:21:50;;;;;;;17.25;7.20;;;;;;;0.92;83.96;98644.06;1683351;85;25594;-64
2022/01/17 02:24:20;;;;;;;24.43;10.55;;;;;;;0.92;83.88;98642.16;1683874;85;25766;-65
2022/01/17 02:26:50;;;;;;;17.57;8.15;;;;;;;0.94;83.86;98651.34;1683934;84;25546;-65
2022/01/17 02:29:16;;;;;;;24.75;10.10;;;;;;;0.93;83.82;98642.98;1683973;84;25730;-59
2022/01/17 02:31:45;;;;;;;16.10;8.33;;;;;;;0.94;83.82;98644.61;1684140;84;27377;-65
2022/01/17 02:34:12;;;;;;;26.05;10.75;;;;;;;0.95;83.68;98643.00;1683845;84;25669;-63
2022/01/17 02:36:39;;;;;;;25.57;9.93;;;;;;;1.00;83.60;98633.64;1683884;85;25678;-59
2022/01/17 02:39:05;;;;;;;34.27;12.33;;;;;;;1.03;83.46;98626.11;1683965;84;26202;-64
2022/01/17 02:41:39;;;;;;;23.75;9.83;;;;;;;1.06;83.35;98629.66;1684044;85;25622;-59
2022/01/17 02:44:05;;;;;;;18.15;7.00;;;;;;;1.08;83.31;98623.45;1683632;85;26091;-59
2022/01/17 02:46:31;;;;;;;20.40;9.30;;;;;;;1.07;83.24;98625.89;1683868;84;25598;-59
2022/01/17 02:49:00;;;;;;;29.18;10.10;;;;;;;1.05;83.21;98622.09;1683746;84;25662;-60
2022/01/17 02:51:28;;;;;;;22.20;9.05;;;;;;;1.07;83.21;98630.73;1684003;85;25502;-58
2022/01/17 02:53:55;;;;;;;20.57;9.30;;;;;;;1.10;83.18;98626.73;1683699;84;25673;-59
2022/01/17 02:56:21;;;;;;;19.42;8.35;;;;;;;1.16;83.05;98631.13;1684011;85;28119;-59
2022/01/17 02:58:49;;;;;;;27.55;10.08;;;;;;;1.20;82.85;98631.42;1683705;84;26137;-59
2022/01/17 03:01:23;;;;;;;16.95;6.97;;;;;;;1.23;82.83;98635.79;1684139;84;25534;-59
2022/01/17 03:03:50;;;;;;;20.85;7.80;;;;;;;1.23;82.72;98630.92;1683440;85;25632;-59
2022/01/17 03:06:18;;;;;;;18.57;9.53;;;;;;;1.22;82.67;98630.64;1686381;84;25713;-58
2022/01/17 03:08:46;;;;;;;21.75;9.88;;;;;;;1.22;82.66;98630.12;1692639;84;27422;-58
2022/01/17 03:11:17;;;;;;;20.27;8.88;;;;;;;1.24;82.56;98622.56;1692326;84;25570;-60
2022/01/17 03:13:44;;;;;;;22.98;11.43;;;;;;;1.30;82.36;98628.03;1692835;84;25764;-59
2022/01/17 03:16:15;;;;;;;16.07;8.88;;;;;;;1.35;82.44;98628.90;1692680;84;25547;-59
2022/01/17 03:18:45;;;;;;;24.45;10.35;;;;;;;1.39;82.36;98623.81;1692873;84;25475;-59
2022/01/17 03:21:15;;;;;;;17.23;6.95;;;;;;;1.43;82.22;98621.41;1692430;84;26742;-58
2022/01/17 03:23:43;;;;;;;17.73;7.90;;;;;;;1.42;82.21;98611.69;1692271;84;25612;-59
2022/01/17 03:26:10;;;;;;;18.65;8.20;;;;;;;1.44;82.25;98614.95;1692305;84;25660;-59
2022/01/17 03:28:38;;;;;;;14.68;7.10;;;;;;;1.43;82.22;98617.36;1692280;84;25612;-59
2022/01/17 03:31:07;;;;;;;14.53;6.65;;;;;;;1.45;82.00;98615.23;1692826;84;25443;-59
2022/01/17 03:33:33;;;;;;;22.07;9.53;;;;;;;1.48;81.96;98614.20;1692513;84;27494;-59
2022/01/17 03:36:00;;;;;;;15.32;8.25;;;;;;;1.53;81.89;98603.98;1692273;84;25492;-58
2022/01/17 03:38:30;;;;;;;13.40;7.22;;;;;;;1.56;81.89;98609.39;1692296;84;25791;-59
2022/01/17 03:40:58;;;;;;;13.43;7.40;;;;;;;1.54;81.88;98606.95;1692771;84;25664;-60
2022/01/17 03:43:25;;;;;;;21.00;9.25;;;;;;;1.49;82.07;98614.47;1692339;84;25744;-58
2022/01/17 03:45:51;;;;;;;25.37;12.15;;;;;;;1.45;82.22;98610.65;1692278;84;25828;-60
2022/01/17 03:48:20;;;;;;;19.42;8.23;;;;;;;1.42;82.46;98605.75;1692109;84;25741;-59
2022/01/17 03:50:48;;;;;;;23.95;10.88;;;;;;;1.43;82.45;98606.55;1692835;84;25534;-58
2022/01/17 03:53:14;;;;;;;29.10;13.45;;;;;;;1.46;82.33;98607.39;1692624;84;26092;-59
2022/01/17 03:55:40;;;;;;;18.00;9.13;;;;;;;1.47;82.39;98603.09;1692453;84;25653;-59
2022/01/17 03:58:07;;;;;;;25.45;10.55;;;;;;;1.46;82.36;98593.37;1692263;84;27456;-59
2022/01/17 04:00:41;;;;;;;23.32;9.60;;;;;;;1.47;82.28;98597.69;1692205;84;27205;-59
2022/01/17 04:03:09;;;;;;;19.95;9.35;;;;;;;1.44;82.23;98587.39;1692665;84;25681;-59
2022/01/17 04:05:36;;;;;;;241.88;82.05;;;;;;;1.42;82.44;98594.95;1692267;84;27491;-59
2022/01/17 04:08:04;;;;;;;123.42;53.80;;;;;;;1.40;82.50;98593.03;1684442;84;25729;-59
2022/01/17 04:10:30;;;;;;;198.97;77.40;;;;;;;1.43;82.54;98593.05;1683904;84;27430;-59
2022/01/17 04:13:01;;;;;;;198.72;53.92;;;;;;;1.44;82.41;98584.70;1683807;85;25455;-59
2022/01/17 04:15:25;;;;;;;61.75;21.68;;;;;;;1.48;82.31;98589.06;1682870;85;25663;-59
2022/01/17 04:17:51;;;;;;;31.05;14.40;;;;;;;1.50;82.16;98585.02;1683613;85;25637;-59
2022/01/17 04:20:26;;;;;;;17.05;9.90;;;;;;;1.52;82.08;98584.77;1683827;85;25606;-59
2022/01/17 04:22:53;;;;;;;16.93;8.35;;;;;;;1.49;81.99;98582.05;1682511;85;25945;-59
2022/01/17 04:25:18;;;;;;;71.25;22.95;;;;;;;1.47;81.93;98572.03;1683240;85;25481;-59
2022/01/17 04:27:45;;;;;;;37.70;14.20;;;;;;;1.48;81.98;98583.66;1683863;85;25610;-59
2022/01/17 04:30:16;;;;;;;47.13;16.37;;;;;;;1.50;81.79;98589.63;1683557;85;26374;-58
2022/01/17 04:32:46;;;;;;;61.73;18.40;;;;;;;1.55;81.76;98595.06;1683970;85;25607;-59
2022/01/17 04:35:20;;;;;;;39.43;13.63;;;;;;;1.61;81.39;98588.64;1683872;85;26649;-64
2022/01/17 04:37:43;;;;;;;42.33;13.55;;;;;;;1.63;81.17;98591.09;1683172;85;25596;-63
2022/01/17 04:40:11;;;;;;;38.53;13.48;;;;;;;1.67;81.18;98587.34;1683581;85;25782;-63
2022/01/17 04:42:44;;;;;;;38.55;12.73;;;;;;;1.67;80.87;98580.04;1683484;85;25629;-64
2022/01/17 04:45:07;;;;;;;22.30;9.63;;;;;;;1.68;80.85;98576.81;1682760;85;25737;-63
2022/01/17 04:47:39;;;;;;;31.30;12.58;;;;;;;1.64;80.67;98565.70;1683868;84;27382;-63
2022/01/17 04:50:08;;;;;;;;;;;;;;;1.70;80.51;98580.08;1686109;85;25437;-64
2022/01/17 04:52:36;;;;;;;48.23;15.93;;;;;;;1.73;80.57;98579.02;1683396;85;25595;-63
2022/01/17 04:55:09;;;;;;;31.95;11.90;;;;;;;1.77;80.41;98565.81;1683700;84;25662;-63
2022/01/17 04:57:38;;;;;;;40.55;13.45;;;;;;;1.81;80.12;98556.67;1683860;84;25756;-63
2022/01/17 05:00:08;;;;;;;18.60;7.25;;;;;;;1.82;80.15;98565.87;1683567;85;27472;-62
2022/01/17 05:02:34;;;;;;;38.00;13.83;;;;;;;1.79;79.93;98561.50;1684085;84;25659;-62
2022/01/17 05:05:02;;;;;;;31.55;12.28;;;;;;;1.78;80.31;98564.73;1683709;85;25773;-64
2022/01/17 05:07:29;;;;;;;26.15;11.48;;;;;;;1.75;80.30;98547.69;1683413;84;25489;-64
2022/01/17 05:09:55;;;;;;;28.98;11.08;;;;;;;1.80;80.11;98557.72;1684045;85;25677;-58
2022/01/17 05:12:22;;;;;;;24.00;11.48;;;;;;;1.80;80.00;98545.56;1683866;85;28081;-58
2022/01/17 05:14:50;;;;;;;29.27;10.72;;;;;;;1.83;79.85;98549.09;1683897;84;25665;-58
2022/01/17 05:19:49;;;;;;;46.20;14.90;;;;;;;1.87;79.89;98554.25;1684225;84;25704;-60
2022/01/17 05:22:19;;;;;;;18.32;8.10;;;;;;;1.87;79.91;98546.15;1684013;84;25466;-59
2022/01/17 05:24:47;;;;;;;37.75;15.10;;;;;;;1.84;79.69;98535.89;1683947;84;28372;-59
2022/01/17 05:27:14;;;;;;;34.63;13.08;;;;;;;1.84;79.87;98529.13;1683985;85;25833;-58
2022/01/17 05:29:40;;;;;;;14.90;6.65;;;;;;;1.83;79.79;98531.53;1683722;84;25678;-58
2022/01/17 05:32:08;;;;;;;34.35;13.98;;;;;;;1.87;79.45;98519.12;1683936;84;25656;-64
2022/01/17 05:34:37;;;;;;;34.60;15.03;;;;;;;1.93;79.69;98509.98;1684131;84;25413;-64
2022/01/17 05:37:04;;;;;;;23.20;10.78;;;;;;;1.96;79.53;98510.81;1683596;85;25947;-64
2022/01/17 05:39:31;;;;;;;16.62;7.62;;;;;;;1.95;79.42;98504.31;1683921;85;25709;-63
2022/01/17 05:41:57;;;;;;;18.27;9.18;;;;;;;1.94;79.26;98497.30;1683798;85;25657;-63
2022/01/17 05:44:23;;;;;;;37.38;14.53;;;;;;;1.92;79.38;98488.62;1673987;85;25838;-64
2022/01/17 05:46:49;;;;;;;32.83;12.85;;;;;;;1.91;79.54;98491.87;1670698;85;25504;-59
2022/01/17 05:49:16;;;;;;;30.72;13.43;;;;;;;1.91;79.40;98491.05;1671054;85;27470;-58
2022/01/17 05:51:43;;;;;;;32.90;12.93;;;;;;;1.94;79.40;98494.59;1671294;85;25939;-58
2022/01/17 05:54:09;;;;;;;29.12;11.83;;;;;;;1.99;79.34;98496.78;1671118;85;25804;-58
2022/01/17 05:56:35;;;;;;;22.65;10.38;;;;;;;2.00;79.23;98488.14;1670838;85;27590;-58
2022/01/17 05:59:02;;;;;;;32.67;13.20;;;;;;;2.00;79.38;98496.25;1667975;85;25707;-59
2022/01/17 06:01:28;;;;;;;26.35;11.22;;;;;;;1.98;79.47;98514.08;1671164;85;27562;-58
2022/01/17 06:03:54;;;;;;;26.48;12.10;;;;;;;1.97;79.58;98512.98;1670986;85;25433;-60
2022/01/17 06:06:21;;;;;;;24.63;10.38;;;;;;;1.94;79.48;98498.12;1670949;85;25512;-59
2022/01/17 06:08:47;;;;;;;27.05;11.43;;;;;;;1.91;79.42;98495.94;1690957;84;25776;-59
2022/01/17 06:11:13;;;;;;;23.73;10.68;;;;;;;1.92;79.40;98513.77;1692356;84;25597;-59
2022/01/17 06:13:40;;;;;;;21.60;8.70;;;;;;;1.96;79.26;98508.67;1692426;84;28002;-59
2022/01/17 06:16:06;;;;;;;21.87;9.88;;;;;;;1.96;79.11;98513.52;1692181;84;25667;-58
2022/01/17 06:18:32;;;;;;;18.27;8.48;;;;;;;1.94;79.17;98507.58;1692136;84;25515;-58
2022/01/17 06:20:59;;;;;;;20.35;9.43;;;;;;;1.94;79.19;98498.64;1691806;84;27533;-58
2022/01/17 06:23:25;;;;;;;28.67;12.20;;;;;;;1.90;79.24;98472.66;1691815;84;25467;-59
2022/01/17 06:25:51;;;;;;;17.73;9.45;;;;;;;1.88;79.37;98460.77;1691867;84;27497;-59
2022/01/17 06:28:18;;;;;;;19.40;10.45;;;;;;;1.89;79.37;98476.45;1692157;84;25765;-58
2022/01/17 06:30:44;;;;;;;26.57;13.28;;;;;;;1.91;79.47;98474.31;1692131;84;25749;-58
2022/01/17 06:33:11;;;;;;;23.05;10.65;;;;;;;1.96;79.46;98484.34;1692301;84;25741;-58
2022/01/17 06:35:37;;;;;;;15.90;7.95;;;;;;;1.97;79.33;98463.81;1692092;84;25624;-58
2022/01/17 06:38:04;;;;;;;16.27;7.78;;;;;;;2.00;79.24;98468.70;1692174;84;27431;-58
2022/01/17 06:40:30;;;;;;;16.87;8.70;;;;;;;2.00;79.27;98457.88;1692120;84;25669;-59
2022/01/17 06:42:56;;;;;;;15.30;7.47;;;;;;;2.00;79.29;98459.23;1691811;83;25705;-59
2022/01/17 06:45:23;;;;;;;12.03;5.87;;;;;;;1.98;79.27;98458.67;1692025;84;25598;-59
2022/01/17 06:47:50;;;;;;;18.92;9.00;;;;;;;1.96;79.73;98455.97;1692071;84;25500;-59
2022/01/17 06:50:17;;;;;;;19.17;9.95;;;;;;;1.96;79.91;98449.20;1691937;84;27603;-60
2022/01/17 06:52:45;;;;;;;18.00;8.63;;;;;;;1.97;80.06;98457.58;1691820;84;25648;-59
2022/01/17 06:55:12;;;;;;;13.03;7.30;;;;;;;2.01;80.02;98457.33;1692217;84;25447;-59
2022/01/17 06:57:39;;;;;;;21.40;9.08;;;;;;;2.00;80.03;98440.31;1691811;84;25813;-58
2022/01/17 07:00:10;;;;;;;14.85;7.17;;;;;;;2.00;80.43;98437.61;1692026;84;25588;-59
2022/01/17 07:02:38;;;;;;;17.85;9.53;;;;;;;1.95;80.71;98432.70;1692263;84;28899;-59
2022/01/17 07:05:07;;;;;;;23.22;9.43;;;;;;;1.88;81.01;98414.03;1691817;84;25488;-59
2022/01/17 07:07:34;;;;;;;14.90;7.60;;;;;;;1.81;81.34;98404.80;1692775;84;25632;-60
2022/01/17 07:10:00;;;;;;;21.35;12.00;;;;;;;1.72;81.76;98404.48;1699808;84;25698;-61
2022/01/17 07:12:27;;;;;;;21.42;9.33;;;;;;;1.69;81.99;98409.59;1699569;84;25644;-62
2022/01/17 07:14:53;;;;;;;17.57;8.10;;;;;;;1.62;82.38;98409.27;1699606;84;27463;-62
2022/01/17 07:17:20;;;;;;;28.27;12.03;;;;;;;1.60;82.60;98406.56;1699893;84;25692;-60
2022/01/17 07:19:47;;;;;;;24.60;11.18;;;;;;;1.60;82.62;98424.95;1699485;84;25247;-60
2022/01/17 07:22:14;;;;;;;31.33;12.60;;;;;;;1.60;82.85;98434.41;1699763;84;25657;-64
2022/01/17 07:24:44;;;;;;;28.83;12.03;;;;;;;1.62;82.90;98447.65;1699891;84;25404;-62
2022/01/17 07:27:10;;;;;;;23.55;9.58;;;;;;;1.59;83.20;98438.72;1699556;84;26898;-64
2022/01/17 07:29:38;;;;;;;29.92;10.88;;;;;;;1.57;83.46;98448.95;1699484;84;25488;-63
2022/01/17 07:32:07;;;;;;;27.85;11.25;;;;;;;1.53;83.58;98468.93;1699584;84;25746;-61
2022/01/17 07:34:34;;;;;;;30.15;12.82;;;;;;;1.49;84.07;98478.08;1699867;84;25661;-65
2022/01/17 07:37:01;;;;;;;22.17;9.33;;;;;;;1.49;84.03;98465.09;1699964;84;25614;-65
2022/01/17 07:39:29;;;;;;;32.58;12.82;;;;;;;1.49;84.11;98438.91;1699566;84;27488;-67
2022/01/17 07:41:56;;;;;;;31.65;12.80;;;;;;;1.49;84.09;98405.16;1699621;84;25412;-66
2022/01/17 07:44:24;;;;;;;29.87;12.70;;;;;;;1.48;84.35;98376.53;1700062;84;25561;-65
2022/01/17 07:46:56;;;;;;;30.30;11.90;;;;;;;1.51;84.30;98352.23;1699585;84;25895;-65
2022/01/17 07:49:25;;;;;;;29.63;12.10;;;;;;;1.53;84.62;98339.82;1699615;84;25600;-64
2022/01/17 07:52:06;;;;;;;24.65;11.45;;;;;;;1.55;84.76;98341.17;1699815;84;27494;-60
2022/01/17 07:54:37;;;;;;;31.77;12.58;;;;;;;1.56;84.62;98341.47;1699712;84;25605;-60
2022/01/17 07:57:05;;;;;;;30.00;12.98;;;;;;;1.58;84.62;98349.31;1699738;84;25675;-61
2022/01/17 07:59:32;;;;;;;37.45;15.28;;;;;;;1.58;84.95;98349.31;1699601;84;25736;-61
2022/01/17 08:02:00;;;;;;;24.32;10.90;;;;;;;1.61;84.62;98332.55;1699743;84;25664;-60
2022/01/17 08:04:27;;;;;;;35.00;13.43;;;;;;;1.64;84.53;98315.83;1699665;84;27500;-60
2022/01/17 08:06:55;;;;;;;36.73;12.75;;;;;;;1.71;84.24;98321.82;1699631;84;25718;-60
2022/01/17 08:09:32;;;;;;;36.42;13.53;;;;;;;1.78;84.23;98305.91;1703108;84;25776;-61
2022/01/17 08:12:00;;;;;;;29.63;11.63;;;;;;;1.82;83.97;98292.96;1704600;84;25730;-62
2022/01/17 08:14:28;;;;;;;27.93;10.95;;;;;;;1.88;83.89;98285.11;1704666;84;25726;-61
2022/01/17 08:16:55;;;;;;;26.95;10.72;;;;;;;1.93;83.56;98271.37;1704850;84;27466;-60
2022/01/17 08:19:24;;;;;;;27.60;11.43;;;;;;;1.95;83.58;98257.85;1704730;84;25581;-60
2022/01/17 08:21:52;;;;;;;27.30;9.80;;;;;;;1.95;83.49;98247.57;1704629;84;25621;-65
2022/01/17 08:24:20;;;;;;;26.77;10.53;;;;;;;1.94;83.51;98250.83;1704569;84;25779;-65
2022/01/17 08:26:50;;;;;;;25.12;11.33;;;;;;;1.97;83.46;98258.94;1704832;84;25507;-62
2022/01/17 08:29:17;;;;;;;26.55;10.38;;;;;;;2.00;83.44;98265.16;1704462;84;26105;-64
2022/01/17 08:31:46;;;;;;;25.70;9.85;;;;;;;2.04;83.26;98254.64;1704745;84;25637;-65
2022/01/17 08:34:14;;;;;;;23.10;10.00;;;;;;;2.09;82.84;98244.64;1704746;84;25668;-64
2022/01/17 08:36:40;;;;;;;28.32;10.78;;;;;;;2.16;82.85;98254.39;1704950;84;25661;-64
2022/01/17 08:39:09;;;;;;;24.90;11.78;;;;;;;2.21;82.40;98254.38;1704638;84;25432;-64
2022/01/17 08:41:36;;;;;;;21.50;8.55;;;;;;;2.25;82.28;98231.94;1704681;84;27623;-64
2022/01/17 08:44:02;;;;;;;17.35;8.93;;;;;;;2.28;82.23;98197.34;1704728;84;25733;-65
2022/01/17 08:46:30;;;;;;;18.17;8.05;;;;;;;2.30;82.06;98200.03;1704962;84;25624;-64
2022/01/17 08:48:56;;;;;;;25.02;9.48;;;;;;;2.29;81.86;98198.42;1704687;84;25628;-61
2022/01/17 08:51:24;;;;;;;30.35;15.30;;;;;;;2.30;82.01;98198.69;1704301;84;25475;-61
2022/01/17 08:53:50;;;;;;;21.33;9.93;;;;;;;2.34;81.98;98196.27;1667925;85;27497;-62
2022/01/17 08:56:17;;;;;;;20.80;9.55;;;;;;;2.37;82.00;98204.66;1667291;86;25497;-61
2022/01/17 08:58:44;;;;;;;19.02;8.70;;;;;;;2.39;81.77;98185.45;1667581;86;25473;-60
2022/01/17 09:01:13;;;;;;;21.15;9.43;;;;;;;2.40;81.69;98179.48;1667488;86;25757;-61
2022/01/17 09:03:39;;;;;;;25.15;11.53;;;;;;;2.40;81.81;98196.53;1667088;86;25659;-60
2022/01/17 09:06:06;;;;;;;23.42;10.95;;;;;;;2.35;82.22;98200.05;1667362;86;27437;-61
2022/01/17 09:08:33;;;;;;;33.38;13.90;;;;;;;2.29;82.79;98220.59;1672599;84;25605;-61
2022/01/17 09:11:00;;;;;;;30.60;12.68;;;;;;;2.25;82.97;98217.63;1690547;84;25486;-61
2022/01/17 09:13:28;;;;;;;16.82;7.85;;;;;;;2.20;83.56;98181.11;1690382;84;25712;-62
2022/01/17 09:15:55;;;;;;;11.18;5.33;;;;;;;2.17;83.82;98197.34;1690358;84;25662;-61
2022/01/17 09:18:24;;;;;;;14.93;6.75;;;;;;;2.11;84.38;98204.65;1690278;84;28050;-61
2022/01/17 09:20:51;;;;;;;10.98;5.30;;;;;;;2.12;84.63;98183.81;1690028;84;25680;-60
2022/01/17 09:23:18;;;;;;;16.70;8.68;;;;;;;2.12;85.41;98191.39;1690175;84;25444;-61
2022/01/17 09:25:46;;;;;;;13.38;6.45;;;;;;;2.17;85.51;98176.25;1692341;84;25783;-62
2022/01/17 09:28:13;;;;;;;12.93;7.20;;;;;;;2.20;85.72;98174.36;1692445;84;25453;-62
2022/01/17 09:30:40;;;;;;;16.20;7.72;;;;;;;2.21;85.98;98182.20;1692697;84;27330;-62
2022/01/17 09:33:08;;;;;;;10.70;5.03;;;;;;;2.20;85.90;98191.40;1692423;84;25664;-62
2022/01/17 09:35:35;;;;;;;10.30;5.22;;;;;;;2.18;86.20;98190.84;1692787;84;25719;-65
2022/01/17 09:38:03;;;;;;;11.15;4.55;;;;;;;2.15;86.57;98189.21;1692441;84;25652;-64
2022/01/17 09:40:30;;;;;;;12.40;6.03;;;;;;;2.10;87.00;98166.52;1692672;84;25611;-63
2022/01/17 09:42:58;;;;;;;12.50;6.50;;;;;;;2.04;87.20;98159.48;1692739;84;27288;-63
2022/01/17 09:45:25;;;;;;;13.90;6.53;;;;;;;2.03;87.07;98138.95;1692319;84;25688;-62
2022/01/17 09:47:52;;;;;;;13.35;6.22;;;;;;;2.02;87.60;98117.06;1693143;84;25484;-62
2022/01/17 09:50:32;;;;;;;12.95;6.22;;;;;;;2.06;87.78;98110.03;1691854;84;25680;-63
2022/01/17 09:52:53;;;;;;;14.13;7.72;;;;;;;2.12;87.61;98103.54;1690454;84;25616;-62
2022/01/17 09:55:26;;;;;;;15.72;7.37;;;;;;;2.16;87.80;98105.70;1691866;84;29563;-61
2022/01/17 09:57:58;;;;;;;15.32;8.48;;;;;;;2.19;87.65;98094.34;1692195;84;25531;-61
2022/01/17 10:00:28;;;;;;;15.18;7.87;;;;;;;2.26;87.45;98101.63;1691094;84;25707;-61
2022/01/17 10:02:59;;;;;;;11.65;6.58;;;;;;;2.31;87.36;98094.87;1692204;84;25748;-61
2022/01/17 10:05:28;;;;;;;10.20;5.15;;;;;;;2.36;87.13;98089.44;1692257;84;25597;-61
2022/01/17 10:08:00;;;;;;;12.55;6.50;;;;;;;2.36;87.13;98063.75;1692254;84;28315;-62
2022/01/17 10:10:52;;;;;;;18.42;7.47;;;;;;;2.39;86.98;98061.06;1684825;84;25500;-65
2022/01/17 10:13:35;;;;;;;12.93;6.30;;;;;;;2.43;86.97;98038.31;1683397;85;25692;-64
2022/01/17 10:16:15;;;;;;;12.68;5.70;;;;;;;2.49;86.16;98046.67;1684390;85;25397;-64
2022/01/17 10:18:58;;;;;;;11.18;5.75;;;;;;;2.56;85.58;98046.40;1684517;84;25703;-62
2022/01/17 10:21:45;;;;;;;12.80;5.85;;;;;;;2.61;85.18;98044.48;1683955;85;26976;-61
2022/01/17 10:27:29;;;;;;;12.98;5.90;;;;;;;2.71;84.04;98044.97;1684658;84;25482;-64
2022/01/17 10:35:31;;;;;;;8.83;3.12;;;;;;;2.75;83.75;98043.88;1684126;85;25999;-61
2022/01/17 10:38:11;;;;;;;6.33;3.50;;;;;;;2.80;84.03;98043.05;1683405;85;26189;-60
2022/01/17 10:40:45;;;;;;;5.03;2.80;;;;;;;2.80;83.89;98039.81;1684374;85;25590;-61
2022/01/17 10:43:34;;;;;;;7.47;4.35;;;;;;;2.81;83.86;98044.13;1684306;85;26039;-61
2022/01/17 10:46:00;;;;;;;4.28;2.30;;;;;;;2.84;83.64;98052.22;1683819;85;25450;-60
2022/01/17 10:48:36;;;;;;;5.10;2.75;;;;;;;2.83;83.28;98027.61;1684331;85;28208;-61
2022/01/17 10:51:06;;;;;;;4.22;2.65;;;;;;;2.79;83.50;98042.23;1684379;85;26149;-61
2022/01/17 10:53:35;;;;;;;5.67;3.65;;;;;;;2.78;83.91;98028.44;1684388;85;25496;-61
2022/01/17 10:56:07;;;;;;;5.62;3.20;;;;;;;2.77;83.93;98020.06;1684116;85;25675;-61
2022/01/17 10:58:33;;;;;;;7.15;2.90;;;;;;;2.75;83.63;98013.58;1683697;85;25690;-62
2022/01/17 11:01:04;;;;;;;4.95;2.85;;;;;;;2.78;83.40;98016.27;1684101;85;27526;-62
2022/01/17 11:03:34;;;;;;;4.72;2.62;;;;;;;2.80;83.50;98023.57;1684540;85;25711;-61
2022/01/17 11:06:09;;;;;;;5.50;3.08;;;;;;;2.85;83.71;98022.17;1684163;85;25776;-61
2022/01/17 11:08:38;;;;;;;4.10;2.33;;;;;;;2.88;83.69;98031.09;1684133;85;26301;-61
2022/01/17 11:11:08;;;;;;;6.00;2.52;;;;;;;2.90;83.59;98021.91;1670950;85;25655;-61
2022/01/17 11:13:39;;;;;;;9.10;4.25;;;;;;;2.88;83.82;98025.68;1671069;85;27442;-64
2022/01/17 11:16:11;;;;;;;5.30;2.62;;;;;;;2.83;84.24;98026.26;1670797;85;26143;-66
2022/01/17 11:18:37;;;;;;;4.45;2.40;;;;;;;2.81;84.29;98021.66;1670721;85;28104;-66
2022/01/17 11:21:13;;;;;;;7.35;4.30;;;;;;;2.80;84.26;98000.57;1670807;85;25655;-65
2022/01/17 11:23:43;;;;;;;8.93;4.03;;;;;;;2.83;84.45;98011.37;1670950;85;25453;-61
2022/01/17 11:26:11;;;;;;;9.03;3.40;;;;;;;2.86;84.27;98007.58;1671131;85;27759;-60
2022/01/17 11:28:40;;;;;;;7.40;4.25;;;;;;;2.87;84.41;98002.95;1671268;85;25933;-61
2022/01/17 11:31:12;;;;;;;7.42;3.42;;;;;;;2.85;84.53;97994.33;1670822;85;26245;-65
2022/01/17 11:33:39;;;;;;;7.15;4.33;;;;;;;2.81;84.48;98013.00;1671024;85;25470;-65
2022/01/17 11:36:06;;;;;;;7.92;4.80;;;;;;;2.81;84.51;97994.06;1670926;85;25659;-64
2022/01/17 11:38:39;;;;;;;8.53;4.40;;;;;;;2.80;84.51;97988.92;1671069;85;27441;-66
2022/01/17 11:41:07;;;;;;;9.83;4.35;;;;;;;2.81;84.62;97978.36;1670811;85;26481;-65
2022/01/17 11:43:37;;;;;;;5.55;2.65;;;;;;;2.82;84.61;97994.31;1642017;85;25690;-62
2022/01/17 11:46:21;;;;;;;8.87;4.50;;;;;;;2.82;84.16;97998.38;1671482;85;25627;-65
2022/01/17 11:49:02;;;;;;;8.23;3.65;;;;;;;2.85;84.24;97982.14;1670958;85;25677;-66
2022/01/17 11:51:46;;;;;;;6.58;3.12;;;;;;;2.86;84.00;97987.28;1671121;85;27782;-62